createdAt,value
2022-11-05T00:00:07.899Z,0.7
2022-11-05T00:01:17.753Z,0.6
2022-11-05T00:02:27.382Z,0.7
2022-11-05T00:03:37.146Z,0.8
2022-11-05T00:04:45.758Z,0.8
2022-11-05T00:05:55.435Z,0.8
2022-11-05T00:07:04.135Z,0.7
2022-11-05T00:08:13.802Z,0.9
2022-11-05T00:09:22.504Z,0.8
2022-11-05T00:10:31.158Z,0.6
2022-11-05T00:11:40.855Z,0.9
2022-11-05T00:12:48.682Z,0.8
2022-11-05T00:13:57.362Z,0.7
2022-11-05T00:15:07.069Z,1
2022-11-05T00:16:15.776Z,0.7
2022-11-05T00:17:25.458Z,0.8
2022-11-05T00:18:34.124Z,0.8
2022-11-05T00:19:41.843Z,0.8
2022-11-05T00:20:51.539Z,0.8
2022-11-05T00:21:59.223Z,0.9
2022-11-05T00:23:09.164Z,0.9
2022-11-05T00:24:23.273Z,0.7
2022-11-05T00:25:29.351Z,0.9
2022-11-05T00:26:39.018Z,0.7
2022-11-05T00:27:47.707Z,0.7
2022-11-05T00:28:56.392Z,1.2
2022-11-05T00:30:06.109Z,0.7
2022-11-05T00:31:13.779Z,0.8
2022-11-05T00:32:22.445Z,0.9
2022-11-05T00:33:31.113Z,0.8
2022-11-05T00:34:39.783Z,0.7
2022-11-05T00:35:49.474Z,0.7
2022-11-05T00:36:59.686Z,0.9
2022-11-05T00:38:07.365Z,0.9
2022-11-05T00:39:17.085Z,0.9
2022-11-05T00:40:26.759Z,1
2022-11-05T00:41:35.444Z,0.7
2022-11-05T00:42:45.106Z,0.8
2022-11-05T00:43:53.809Z,0.8
2022-11-05T00:45:03.550Z,0.9
2022-11-05T00:46:12.251Z,1
2022-11-05T00:47:19.939Z,0.8
2022-11-05T00:48:29.593Z,0.9
2022-11-05T00:49:37.276Z,0.8
2022-11-05T00:50:45.975Z,0.8
2022-11-05T00:51:55.655Z,0.9
2022-11-05T00:53:05.395Z,0.8
2022-11-05T00:54:15.154Z,0.7
2022-11-05T00:55:23.885Z,1.2
2022-11-05T00:56:33.612Z,1.1
2022-11-05T00:57:43.373Z,1.1
2022-11-05T00:58:53.121Z,1.1
2022-11-05T01:00:01.890Z,1
2022-11-05T01:01:11.668Z,0.9
2022-11-05T01:02:20.431Z,0.8
2022-11-05T01:03:30.105Z,1
2022-11-05T01:04:39.888Z,0.9
2022-11-05T01:05:48.624Z,0.9
2022-11-05T01:06:58.372Z,0.8
2022-11-05T01:08:07.105Z,0.8
2022-11-05T01:09:14.857Z,0.9
2022-11-05T01:10:24.611Z,0.9
2022-11-05T01:11:34.348Z,0.7
2022-11-05T01:12:44.082Z,0.8
2022-11-05T01:13:52.906Z,0.8
2022-11-05T01:15:02.522Z,0.8
2022-11-05T01:16:12.448Z,0.9
2022-11-05T01:17:22.198Z,0.8
2022-11-05T01:18:31.930Z,0.7
2022-11-05T01:19:41.668Z,1
2022-11-05T01:20:50.408Z,0.9
2022-11-05T01:22:00.164Z,1.2
2022-11-05T01:23:13.408Z,1
2022-11-05T01:24:20.542Z,0.9
2022-11-05T01:25:30.292Z,1
2022-11-05T01:26:40.034Z,0.8
2022-11-05T01:27:48.753Z,0.9
2022-11-05T01:28:57.650Z,0.9
2022-11-05T01:30:06.279Z,1
2022-11-05T01:31:16.048Z,0.9
2022-11-05T01:32:25.779Z,0.8
2022-11-05T01:33:35.512Z,0.7
2022-11-05T01:34:45.290Z,1
2022-11-05T01:35:55.040Z,0.9
2022-11-05T01:37:04.773Z,1
2022-11-05T01:38:14.521Z,0.8
2022-11-05T01:39:23.310Z,0.8
2022-11-05T01:40:31.067Z,0.7
2022-11-05T01:41:40.767Z,1.2
2022-11-05T01:42:50.502Z,0.6
2022-11-05T01:44:00.230Z,0.7
2022-11-05T01:45:10.027Z,1.2
2022-11-05T01:50:44.278Z,1
2022-11-05T01:51:57.297Z,0.8
2022-11-05T01:53:14.239Z,1
2022-11-05T01:54:22.713Z,0.7
2022-11-05T01:55:32.464Z,0.8
2022-11-05T01:56:40.538Z,0.6
2022-11-05T01:57:49.239Z,0.9
2022-11-05T01:58:59.137Z,0.7
2022-11-05T02:00:10.061Z,0.9
2022-11-05T02:01:21.064Z,0.9
2022-11-05T02:02:30.963Z,0.7
2022-11-05T02:03:39.660Z,1
2022-11-05T02:04:49.547Z,0.8
2022-11-05T02:05:58.431Z,0.9
2022-11-05T02:07:08.272Z,0.7
2022-11-05T02:08:18.338Z,0.8
2022-11-05T02:09:26.153Z,0.7
2022-11-05T02:10:35.944Z,0.8
2022-11-05T02:11:44.735Z,0.8
2022-11-05T02:12:54.614Z,0.8
2022-11-05T02:14:04.414Z,0.8
2022-11-05T02:15:13.176Z,0.7
2022-11-05T02:16:21.963Z,0.7
2022-11-05T02:17:31.805Z,0.9
2022-11-05T02:18:40.625Z,0.6
2022-11-05T02:19:50.517Z,0.8
2022-11-05T02:21:00.299Z,1
2022-11-05T02:22:10.120Z,0.8
2022-11-05T02:23:18.920Z,0.8
2022-11-05T02:24:28.666Z,0.8
2022-11-05T02:25:38.441Z,0.9
2022-11-05T02:26:48.206Z,0.8
2022-11-05T02:27:57.967Z,0.9
2022-11-05T02:29:07.714Z,0.6
2022-11-05T02:30:17.460Z,0.8
2022-11-05T02:31:27.345Z,1
2022-11-05T02:32:36.150Z,0.7
2022-11-05T02:33:44.872Z,0.8
2022-11-05T02:34:54.650Z,0.8
2022-11-05T02:36:04.464Z,0.8
2022-11-05T02:37:14.335Z,0.8
2022-11-05T02:38:24.166Z,0.8
2022-11-05T02:39:33.948Z,0.7
2022-11-05T02:40:43.744Z,0.8
2022-11-05T02:41:53.578Z,0.7
2022-11-05T02:43:02.433Z,1
2022-11-05T02:44:12.200Z,0.7
2022-11-05T02:45:21.963Z,1
2022-11-05T02:46:31.737Z,0.8
2022-11-05T02:47:41.540Z,0.9
2022-11-05T02:48:50.271Z,1.1
2022-11-05T02:49:59.038Z,0.9
2022-11-05T02:51:08.805Z,1.2
2022-11-05T02:52:17.566Z,1.4
2022-11-05T02:53:27.306Z,0.9
2022-11-05T02:54:37.113Z,1.3
2022-11-05T02:55:45.861Z,1.3
2022-11-05T02:56:55.631Z,1
2022-11-05T02:58:05.407Z,1.2
2022-11-05T02:59:15.216Z,1.2
2022-11-05T03:00:25.254Z,1
2022-11-05T03:01:35.123Z,1.1
2022-11-05T03:02:44.945Z,1.4
2022-11-05T03:03:54.575Z,1.2
2022-11-05T03:05:02.338Z,1.4
2022-11-05T03:06:11.414Z,1.3
2022-11-05T03:07:21.203Z,1.6
2022-11-05T03:08:30.040Z,1.4
2022-11-05T03:09:39.787Z,1.3
2022-11-05T03:10:49.539Z,1
2022-11-05T03:11:58.360Z,1.1
2022-11-05T03:13:06.214Z,1.1
2022-11-05T03:14:16.028Z,1.1
2022-11-05T03:15:24.781Z,1.3
2022-11-05T03:16:34.685Z,1.2
2022-11-05T03:17:43.511Z,1
2022-11-05T03:18:52.399Z,0.9
2022-11-05T03:20:02.061Z,0.8
2022-11-05T03:21:11.882Z,1
2022-11-05T03:22:21.627Z,1
2022-11-05T03:23:31.449Z,1
2022-11-05T03:24:40.205Z,0.8
2022-11-05T03:25:49.013Z,1.4
2022-11-05T03:26:58.776Z,1.2
2022-11-05T03:28:08.631Z,1.3
2022-11-05T03:29:18.402Z,1.2
2022-11-05T03:30:27.172Z,1.3
2022-11-05T03:31:36.932Z,1.2
2022-11-05T03:32:51.634Z,1.1
2022-11-05T03:33:59.391Z,1.3
2022-11-05T03:35:16.490Z,1
2022-11-05T03:36:31.282Z,0.9
2022-11-05T03:37:40.081Z,1
2022-11-05T03:38:49.738Z,0.9
2022-11-05T03:39:59.452Z,0.7
2022-11-05T03:41:09.197Z,0.9
2022-11-05T03:42:18.867Z,0.9
2022-11-05T03:43:27.549Z,0.7
2022-11-05T03:44:37.313Z,0.8
2022-11-05T03:45:44.998Z,1
2022-11-05T03:46:54.705Z,0.8
2022-11-05T03:48:04.415Z,0.8
2022-11-05T03:49:12.126Z,1
2022-11-05T03:50:21.899Z,0.8
2022-11-05T03:51:31.623Z,0.7
2022-11-05T03:52:41.411Z,1.1
2022-11-05T03:53:51.172Z,0.8
2022-11-05T03:55:01.039Z,1
2022-11-05T03:56:09.797Z,1
2022-11-05T03:57:19.524Z,0.8
2022-11-05T03:58:27.218Z,1
2022-11-05T03:59:36.921Z,0.8
2022-11-05T04:00:45.957Z,0.8
2022-11-05T04:01:53.817Z,1.1
2022-11-05T04:03:03.433Z,0.9
2022-11-05T04:04:11.287Z,0.9
2022-11-05T04:05:21.000Z,1
2022-11-05T04:06:30.730Z,1.1
2022-11-05T04:07:39.423Z,0.9
2022-11-05T04:08:49.096Z,0.9
2022-11-05T04:09:59.047Z,0.7
2022-11-05T04:11:08.753Z,0.8
2022-11-05T04:12:18.436Z,0.7
2022-11-05T04:13:28.143Z,0.9
2022-11-05T04:14:36.823Z,0.8
2022-11-05T04:15:46.542Z,0.8
2022-11-05T04:16:54.283Z,0.9
2022-11-05T04:18:03.990Z,1
2022-11-05T04:19:12.691Z,1.3
2022-11-05T04:20:22.389Z,0.9
2022-11-05T04:21:32.125Z,0.9
2022-11-05T04:22:40.845Z,0.9
2022-11-05T04:23:50.534Z,0.9
2022-11-05T04:25:00.248Z,1.1
2022-11-05T04:26:07.933Z,0.8
2022-11-05T04:27:17.694Z,0.6
2022-11-05T04:28:26.369Z,1
2022-11-05T04:29:35.072Z,1
2022-11-05T04:30:44.784Z,0.8
2022-11-05T04:31:53.472Z,0.9
2022-11-05T04:33:02.205Z,0.9
2022-11-05T04:34:11.926Z,0.9
2022-11-05T04:35:19.649Z,0.8
2022-11-05T04:36:29.431Z,0.8
2022-11-05T04:37:39.167Z,0.8
2022-11-05T04:38:48.849Z,0.8
2022-11-05T04:39:58.583Z,0.8
2022-11-05T04:41:07.274Z,1
2022-11-05T04:42:17.056Z,1.2
2022-11-05T04:43:26.760Z,0.8
2022-11-05T04:44:35.503Z,0.8
2022-11-05T04:45:45.195Z,0.9
2022-11-05T04:46:54.941Z,0.8
2022-11-05T04:48:02.646Z,0.8
2022-11-05T04:49:12.334Z,0.9
2022-11-05T04:50:20.072Z,0.9
2022-11-05T04:51:29.767Z,1
2022-11-05T04:52:39.453Z,0.8
2022-11-05T04:53:49.258Z,0.8
2022-11-05T04:54:58.929Z,0.7
2022-11-05T04:56:07.651Z,0.8
2022-11-05T04:57:16.418Z,1.1
2022-11-05T04:58:26.089Z,1.1
2022-11-05T04:59:33.771Z,1
2022-11-05T05:00:42.506Z,0.6
2022-11-05T05:01:52.324Z,0.9
2022-11-05T05:03:00.196Z,1
2022-11-05T05:04:08.971Z,0.9
2022-11-05T05:05:17.718Z,0.8
2022-11-05T05:06:25.433Z,0.9
2022-11-05T05:07:35.210Z,1
2022-11-05T05:08:44.925Z,1
2022-11-05T05:09:54.697Z,0.8
2022-11-05T05:11:04.413Z,0.8
2022-11-05T05:12:13.158Z,0.8
2022-11-05T05:13:23.015Z,0.9
2022-11-05T05:14:32.750Z,0.8
2022-11-05T05:15:40.448Z,0.9
2022-11-05T05:16:50.143Z,0.7
2022-11-05T05:17:59.818Z,0.7
2022-11-05T05:19:08.560Z,0.8
2022-11-05T05:20:18.328Z,0.9
2022-11-05T05:21:27.043Z,0.8
2022-11-05T05:22:34.738Z,0.7
2022-11-05T05:23:44.608Z,0.6
2022-11-05T05:24:54.345Z,0.8
2022-11-05T05:26:03.082Z,0.9
2022-11-05T05:27:12.748Z,0.7
2022-11-05T05:28:20.472Z,0.8
2022-11-05T05:29:30.261Z,0.6
2022-11-05T05:30:38.967Z,0.8
2022-11-05T05:31:47.715Z,0.9
2022-11-05T05:32:57.404Z,0.7
2022-11-05T05:34:07.091Z,0.9
2022-11-05T05:35:16.779Z,0.8
2022-11-05T05:36:26.469Z,0.6
2022-11-05T05:37:36.192Z,0.8
2022-11-05T05:38:44.883Z,1
2022-11-05T05:39:53.569Z,0.7
2022-11-05T05:41:01.262Z,0.9
2022-11-05T05:42:11.042Z,0.8
2022-11-05T05:43:19.733Z,0.8
2022-11-05T05:44:28.436Z,0.8
2022-11-05T05:45:38.108Z,1
2022-11-05T05:46:45.842Z,0.7
2022-11-05T05:47:55.554Z,0.9
2022-11-05T05:49:09.523Z,1
2022-11-05T05:50:14.940Z,0.9
2022-11-05T05:51:24.632Z,0.9
2022-11-05T05:52:33.378Z,1.2
2022-11-05T05:53:42.194Z,0.8
2022-11-05T05:54:51.879Z,0.8
2022-11-05T05:55:59.562Z,1.1
2022-11-05T05:57:09.292Z,1.1
2022-11-05T05:58:18.024Z,1.1
2022-11-05T05:59:26.736Z,1.4
2022-11-05T06:00:36.461Z,1
2022-11-05T06:01:44.257Z,0.9
2022-11-05T06:02:54.020Z,0.9
2022-11-05T06:04:03.664Z,1.2
2022-11-05T06:05:11.387Z,0.8
2022-11-05T06:06:21.250Z,0.8
2022-11-05T06:07:33.099Z,1
2022-11-05T06:08:39.843Z,1.2
2022-11-05T06:09:49.539Z,0.6
2022-11-05T06:10:57.338Z,1
2022-11-05T06:12:07.015Z,0.7
2022-11-05T06:13:16.749Z,0.7
2022-11-05T06:14:26.465Z,1
2022-11-05T06:15:36.297Z,0.7
2022-11-05T06:16:46.155Z,0.8
2022-11-05T06:17:54.812Z,0.9
2022-11-05T06:19:04.489Z,0.9
2022-11-05T06:20:14.270Z,1.1
2022-11-05T06:21:22.964Z,2.1
2022-11-05T06:22:32.729Z,3.5
2022-11-05T06:23:42.413Z,4.7
2022-11-05T06:24:52.181Z,4.7
2022-11-05T06:26:00.876Z,2.9
2022-11-05T06:27:09.615Z,1.7
2022-11-05T06:28:19.343Z,1.5
2022-11-05T06:29:29.098Z,1.4
2022-11-05T06:30:37.884Z,1.5
2022-11-05T06:31:47.560Z,1.5
2022-11-05T06:32:56.348Z,1.4
2022-11-05T06:34:06.078Z,1.5
2022-11-05T06:35:14.752Z,1.9
2022-11-05T06:36:22.428Z,1.5
2022-11-05T06:37:32.106Z,1.6
2022-11-05T06:38:40.848Z,1.7
2022-11-05T06:39:49.567Z,1.6
2022-11-05T06:40:59.255Z,1.9
2022-11-05T06:42:18.194Z,2
2022-11-05T06:43:19.621Z,2.3
2022-11-05T06:44:28.383Z,1.8
2022-11-05T06:45:37.216Z,2.1
2022-11-05T06:46:48.560Z,2
2022-11-05T06:47:55.662Z,1.6
2022-11-05T06:49:05.322Z,2
2022-11-05T06:50:15.075Z,1.9
2022-11-05T06:51:22.857Z,1.7
2022-11-05T06:52:34.841Z,2.1
2022-11-05T06:53:43.237Z,2.5
2022-11-05T06:54:52.936Z,1.8
2022-11-05T06:56:01.686Z,1.8
2022-11-05T06:57:10.392Z,2
2022-11-05T06:58:20.090Z,1.9
2022-11-05T06:59:29.772Z,1.7
2022-11-05T07:00:38.600Z,1.8
2022-11-05T07:01:48.333Z,1.5
2022-11-05T07:02:57.952Z,1.2
2022-11-05T07:04:05.644Z,1.3
2022-11-05T07:05:15.325Z,0.9
2022-11-05T07:06:25.018Z,0.9
2022-11-05T07:07:32.715Z,0.8
2022-11-05T07:08:42.607Z,0.9
2022-11-05T07:09:52.278Z,0.7
2022-11-05T07:11:00.011Z,0.9
2022-11-05T07:12:09.694Z,0.9
2022-11-05T07:13:17.488Z,0.7
2022-11-05T07:14:26.085Z,0.7
2022-11-05T07:15:35.888Z,1
2022-11-05T07:16:44.549Z,0.6
2022-11-05T07:17:54.280Z,0.9
2022-11-05T07:19:03.113Z,0.8
2022-11-05T07:20:10.754Z,1.3
2022-11-05T07:21:20.451Z,0.9
2022-11-05T07:22:29.125Z,0.7
2022-11-05T07:23:38.898Z,0.8
2022-11-05T07:24:48.633Z,0.7
2022-11-05T07:25:58.383Z,0.7
2022-11-05T07:27:08.078Z,0.7
2022-11-05T07:28:17.804Z,0.8
2022-11-05T07:29:25.497Z,1.2
2022-11-05T07:30:35.199Z,1
2022-11-05T07:31:44.962Z,0.8
2022-11-05T07:32:53.636Z,1
2022-11-05T07:34:03.318Z,0.9
2022-11-05T07:35:11.083Z,1.1
2022-11-05T07:36:20.689Z,0.9
2022-11-05T07:37:29.414Z,0.8
2022-11-05T07:38:37.103Z,0.9
2022-11-05T07:39:47.802Z,0.9
2022-11-05T07:40:55.459Z,0.7
2022-11-05T07:42:05.142Z,0.9
2022-11-05T07:43:15.135Z,0.5
2022-11-05T07:44:24.605Z,0.8
2022-11-05T07:45:34.303Z,0.8
2022-11-05T07:46:44.061Z,0.8
2022-11-05T07:47:51.750Z,0.7
2022-11-05T07:49:01.470Z,1
2022-11-05T07:50:09.132Z,0.8
2022-11-05T07:51:19.055Z,1.2
2022-11-05T07:52:28.734Z,1.1
2022-11-05T07:53:38.740Z,0.8
2022-11-05T07:54:47.198Z,0.6
2022-11-05T07:55:55.859Z,0.7
2022-11-05T07:57:04.542Z,0.8
2022-11-05T07:58:14.250Z,0.4
2022-11-05T07:59:21.986Z,0.6
2022-11-05T08:00:31.726Z,0.8
2022-11-05T08:01:41.604Z,0.8
2022-11-05T08:02:50.348Z,0.5
2022-11-05T08:03:59.777Z,0.9
2022-11-05T08:05:08.437Z,0.8
2022-11-05T08:06:16.177Z,0.6
2022-11-05T08:07:25.893Z,0.6
2022-11-05T08:08:34.590Z,0.5
2022-11-05T08:09:43.256Z,0.5
2022-11-05T08:10:52.934Z,0.9
2022-11-05T08:12:03.415Z,0.9
2022-11-05T08:13:12.733Z,0.8
2022-11-05T08:14:22.162Z,1
2022-11-05T08:15:29.826Z,1.6
2022-11-05T08:16:39.530Z,4.1
2022-11-05T08:17:48.245Z,3.3
2022-11-05T08:18:56.934Z,2.3
2022-11-05T08:20:06.580Z,2.3
2022-11-05T08:21:15.341Z,1.1
2022-11-05T08:22:25.061Z,1.5
2022-11-05T08:23:33.907Z,1.2
2022-11-05T08:24:41.550Z,0.9
2022-11-05T08:25:51.231Z,1
2022-11-05T08:26:58.956Z,0.9
2022-11-05T08:28:08.653Z,0.6
2022-11-05T08:29:17.369Z,0.8
2022-11-05T08:30:27.056Z,0.9
2022-11-05T08:31:36.746Z,0.6
2022-11-05T08:32:45.404Z,1.2
2022-11-05T08:33:58.391Z,0.7
2022-11-05T08:35:05.809Z,0.9
2022-11-05T08:36:13.485Z,0.8
2022-11-05T08:37:23.158Z,1
2022-11-05T08:38:32.853Z,0.8
2022-11-05T08:39:40.663Z,0.9
2022-11-05T08:40:50.286Z,0.9
2022-11-05T08:41:58.968Z,1.4
2022-11-05T08:43:06.639Z,1.1
2022-11-05T08:44:16.353Z,1.1
2022-11-05T08:45:24.076Z,0.8
2022-11-05T08:46:35.415Z,0.7
2022-11-05T08:47:42.450Z,0.9
2022-11-05T08:48:51.161Z,1.2
2022-11-05T08:50:00.864Z,0.8
2022-11-05T08:51:10.527Z,1.1
2022-11-05T08:52:20.254Z,1
2022-11-05T08:53:28.922Z,1.4
2022-11-05T08:54:36.599Z,1
2022-11-05T08:55:46.312Z,0.8
2022-11-05T08:56:55.978Z,0.9
2022-11-05T08:58:04.678Z,1
2022-11-05T08:59:15.364Z,0.9
2022-11-05T09:00:24.150Z,0.9
2022-11-05T09:01:32.829Z,1
2022-11-05T09:02:42.467Z,0.5
2022-11-05T09:03:51.155Z,1.2
2022-11-05T09:04:58.816Z,0.8
2022-11-05T09:06:08.516Z,0.9
2022-11-05T09:07:18.200Z,1.4
2022-11-05T09:08:26.878Z,1.1
2022-11-05T09:09:36.567Z,1
2022-11-05T09:10:45.229Z,0.9
2022-11-05T09:12:11.490Z,0.8
2022-11-05T09:13:04.549Z,1.1
2022-11-05T09:14:13.261Z,1.3
2022-11-05T09:15:22.983Z,1.2
2022-11-05T09:16:31.634Z,1.4
2022-11-05T09:17:40.332Z,1.3
2022-11-05T09:18:50.037Z,1.6
2022-11-05T09:19:57.752Z,2
2022-11-05T09:21:06.450Z,2.6
2022-11-05T09:22:16.148Z,3.1
2022-11-05T09:23:24.070Z,2.5
2022-11-05T09:24:33.917Z,2
2022-11-05T09:25:43.693Z,2
2022-11-05T09:26:51.807Z,2.1
2022-11-05T09:28:01.725Z,2
2022-11-05T09:29:14.178Z,1.9
2022-11-05T09:30:20.444Z,1.7
2022-11-05T09:31:30.387Z,1.8
2022-11-05T09:32:39.285Z,2.6
2022-11-05T09:33:49.137Z,2.6
2022-11-05T09:34:58.840Z,1.6
2022-11-05T09:36:06.509Z,1.5
2022-11-05T09:37:16.256Z,1.7
2022-11-05T09:38:24.942Z,3
2022-11-05T09:39:34.637Z,1.9
2022-11-05T09:40:44.327Z,1.8
2022-11-05T09:41:52.009Z,1.5
2022-11-05T09:43:01.688Z,2.2
2022-11-05T09:44:11.445Z,3.3
2022-11-05T09:45:19.152Z,2.4
2022-11-05T09:46:28.813Z,2.7
2022-11-05T09:47:37.478Z,2
2022-11-05T09:48:47.165Z,1.9
2022-11-05T09:49:55.878Z,1.8
2022-11-05T09:51:05.585Z,2
2022-11-05T09:52:15.235Z,2.1
2022-11-05T09:53:23.923Z,1.9
2022-11-05T09:54:33.601Z,2.4
2022-11-05T09:55:43.288Z,2
2022-11-05T09:56:51.948Z,1.2
2022-11-05T09:58:00.611Z,0.9
2022-11-05T09:59:10.288Z,0.8
2022-11-05T10:00:17.976Z,1
2022-11-05T10:01:27.796Z,1
2022-11-05T10:02:36.390Z,1
2022-11-05T10:03:46.032Z,0.9
2022-11-05T10:04:57.270Z,1
2022-11-05T10:06:05.876Z,2.2
2022-11-05T10:07:15.591Z,1.6
2022-11-05T10:08:25.258Z,1.2
2022-11-05T10:09:32.914Z,0.8
2022-11-05T10:10:42.603Z,0.8
2022-11-05T10:11:52.288Z,0.7
2022-11-05T10:13:01.980Z,0.8
2022-11-05T10:14:11.709Z,0.8
2022-11-05T10:15:19.443Z,0.7
2022-11-05T10:16:27.150Z,0.9
2022-11-05T10:17:39.124Z,1.2
2022-11-05T10:18:46.533Z,1.1
2022-11-05T10:19:56.251Z,1.7
2022-11-05T10:21:04.916Z,1.1
2022-11-05T10:22:13.617Z,1.6
2022-11-05T10:23:22.297Z,1.8
2022-11-05T10:24:30.089Z,2.1
2022-11-05T10:25:39.801Z,3.4
2022-11-05T10:26:48.463Z,2.2
2022-11-05T10:27:57.142Z,3.2
2022-11-05T10:29:06.814Z,2.8
2022-11-05T10:30:15.738Z,3.5
2022-11-05T10:31:25.409Z,3.8
2022-11-05T10:32:35.104Z,4
2022-11-05T10:33:44.797Z,3.6
2022-11-05T10:34:54.525Z,2.6
2022-11-05T10:36:04.228Z,2.6
2022-11-05T10:37:13.907Z,2.1
2022-11-05T10:38:23.580Z,1.8
2022-11-05T10:39:33.243Z,1.6
2022-11-05T10:40:42.921Z,0.9
2022-11-05T10:41:52.616Z,1
2022-11-05T10:43:00.297Z,0.9
2022-11-05T10:44:12.429Z,1
2022-11-05T10:45:19.652Z,1.1
2022-11-05T10:46:27.323Z,0.7
2022-11-05T10:47:37.018Z,0.7
2022-11-05T10:48:45.680Z,0.6
2022-11-05T10:49:53.321Z,0.7
2022-11-05T10:51:02.016Z,0.6
2022-11-05T10:52:09.721Z,0.9
2022-11-05T10:53:18.419Z,0.7
2022-11-05T10:54:28.125Z,1
2022-11-05T10:55:37.807Z,0.9
2022-11-05T10:56:47.534Z,1.3
2022-11-05T10:57:56.240Z,1.5
2022-11-05T10:59:09.490Z,2.3
2022-11-05T11:00:15.726Z,2.9
2022-11-05T11:01:25.590Z,2.8
2022-11-05T11:02:34.190Z,4
2022-11-05T11:03:43.857Z,4
2022-11-05T11:04:52.649Z,3.9
2022-11-05T11:06:00.293Z,3.2
2022-11-05T11:07:09.992Z,2.7
2022-11-05T11:08:18.663Z,1.7
2022-11-05T11:09:27.366Z,1.8
2022-11-05T11:10:37.055Z,2
2022-11-05T11:11:45.745Z,1.5
2022-11-05T11:12:55.450Z,1.2
2022-11-05T11:14:04.126Z,0.9
2022-11-05T11:15:13.848Z,0.6
2022-11-05T11:16:23.579Z,0.4
2022-11-05T11:17:31.260Z,0.6
2022-11-05T11:18:40.888Z,0.6
2022-11-05T11:19:50.720Z,0.6
2022-11-05T11:20:59.409Z,0.5
2022-11-05T11:22:08.120Z,0.5
2022-11-05T11:23:16.872Z,0.7
2022-11-05T11:24:24.530Z,2
2022-11-05T11:25:34.226Z,0.9
2022-11-05T11:26:42.913Z,0.6
2022-11-05T11:27:51.601Z,0.4
2022-11-05T11:29:01.271Z,0.5
2022-11-05T11:30:09.942Z,0.6
2022-11-05T11:31:19.934Z,0.5
2022-11-05T11:32:28.590Z,0.6
2022-11-05T11:33:36.416Z,0.5
2022-11-05T11:34:46.086Z,0.4
2022-11-05T11:35:53.818Z,0.6
2022-11-05T11:37:02.579Z,0.5
2022-11-05T11:38:12.283Z,0.4
2022-11-05T11:39:20.983Z,0.4
2022-11-05T11:40:30.655Z,0.3
2022-11-05T11:41:39.327Z,0.4
2022-11-05T11:42:47.016Z,0.4
2022-11-05T11:43:56.697Z,0.6
2022-11-05T11:45:05.380Z,0.6
2022-11-05T11:46:15.281Z,0.3
2022-11-05T11:47:24.694Z,0.3
2022-11-05T11:48:33.368Z,0.5
2022-11-05T11:49:43.161Z,0.3
2022-11-05T11:50:51.843Z,0.5
2022-11-05T11:51:59.490Z,0.6
2022-11-05T11:53:08.301Z,0.5
2022-11-05T11:54:16.806Z,0.4
2022-11-05T11:55:25.483Z,0.6
2022-11-05T11:56:35.191Z,0.4
2022-11-05T11:57:43.880Z,0.3
2022-11-05T11:58:53.564Z,0.4
2022-11-05T12:00:10.487Z,0.3
2022-11-05T12:01:13.859Z,0.5
2022-11-05T12:02:23.634Z,0.5
2022-11-05T12:03:32.261Z,0.5
2022-11-05T12:04:41.920Z,0.5
2022-11-05T12:05:51.626Z,0.4
2022-11-05T12:07:00.281Z,0.5
2022-11-05T12:08:09.980Z,0.4
2022-11-05T12:09:19.763Z,0.4
2022-11-05T12:10:28.324Z,0.6
2022-11-05T12:11:37.995Z,0.4
2022-11-05T12:12:45.660Z,0.5
2022-11-05T12:13:53.419Z,0.7
2022-11-05T12:15:03.345Z,0.5
2022-11-05T12:16:13.021Z,0.5
2022-11-05T12:17:22.787Z,0.5
2022-11-05T12:18:32.507Z,0.5
2022-11-05T12:19:41.206Z,0.4
2022-11-05T12:20:55.446Z,0.5
2022-11-05T12:21:59.531Z,0.7
2022-11-05T12:23:08.345Z,0.7
2022-11-05T12:24:17.875Z,0.8
2022-11-05T12:25:26.643Z,0.7
2022-11-05T12:26:36.305Z,1.1
2022-11-05T12:27:44.981Z,0.9
2022-11-05T12:29:17.072Z,0.8
2022-11-05T12:30:05.399Z,0.6
2022-11-05T12:31:13.221Z,0.6
2022-11-05T12:32:23.171Z,0.6
2022-11-05T12:33:32.813Z,1.2
2022-11-05T12:34:40.471Z,0.8
2022-11-05T12:35:54.923Z,0.7
2022-11-05T12:36:59.997Z,0.5
2022-11-05T12:38:07.661Z,0.7
2022-11-05T12:39:17.403Z,0.9
2022-11-05T12:40:26.066Z,1.1
2022-11-05T12:41:34.782Z,0.8
2022-11-05T12:42:44.518Z,1.6
2022-11-05T12:43:53.190Z,3.2
2022-11-05T12:45:02.881Z,1.2
2022-11-05T12:46:11.539Z,1.7
2022-11-05T12:47:19.209Z,2
2022-11-05T12:48:32.878Z,1.9
2022-11-05T12:49:37.622Z,1.7
2022-11-05T12:50:47.319Z,1.1
2022-11-05T12:51:56.990Z,0.9
2022-11-05T12:53:06.649Z,0.9
2022-11-05T12:54:16.384Z,1.1
2022-11-05T12:55:25.040Z,1.2
2022-11-05T12:56:32.710Z,1.1
2022-11-05T12:57:42.416Z,1
2022-11-05T12:58:51.078Z,0.8
2022-11-05T12:59:58.745Z,0.9
2022-11-05T13:01:08.491Z,1
2022-11-05T13:02:17.195Z,1.2
2022-11-05T13:03:24.743Z,1
2022-11-05T13:04:34.444Z,0.8
2022-11-05T13:05:42.215Z,0.6
2022-11-05T13:06:51.884Z,0.7
2022-11-05T13:08:01.800Z,1.2
2022-11-05T13:09:10.479Z,1.1
2022-11-05T13:10:20.269Z,1
2022-11-05T13:11:28.944Z,1.2
2022-11-05T13:12:38.607Z,1
2022-11-05T13:13:48.398Z,0.9
2022-11-05T13:14:56.211Z,0.7
2022-11-05T13:16:06.226Z,0.8
2022-11-05T13:17:15.979Z,0.8
2022-11-05T13:18:23.701Z,0.9
2022-11-05T13:19:32.364Z,0.9
2022-11-05T13:20:42.051Z,0.7
2022-11-05T13:21:49.841Z,1.1
2022-11-05T13:22:59.560Z,0.9
2022-11-05T13:24:07.231Z,0.8
2022-11-05T13:25:17.067Z,0.7
2022-11-05T13:26:25.723Z,0.6
2022-11-05T13:27:33.585Z,0.7
2022-11-05T13:28:43.244Z,0.8
2022-11-05T13:29:51.939Z,0.5
2022-11-05T13:31:00.673Z,0.6
2022-11-05T13:32:10.346Z,0.5
2022-11-05T13:33:18.016Z,1
2022-11-05T13:34:27.727Z,1.3
2022-11-05T13:35:37.417Z,1.8
2022-11-05T13:36:47.094Z,1.7
2022-11-05T13:37:56.800Z,1.6
2022-11-05T13:39:06.503Z,1.6
2022-11-05T13:40:15.550Z,1.6
2022-11-05T13:41:25.225Z,1.8
2022-11-05T13:42:32.939Z,1.2
2022-11-05T13:43:42.682Z,1.6
2022-11-05T13:44:52.428Z,1.1
2022-11-05T13:46:05.794Z,1
2022-11-05T13:47:12.837Z,1
2022-11-05T13:48:21.493Z,1.1
2022-11-05T13:49:29.245Z,1
2022-11-05T13:50:39.084Z,1.1
2022-11-05T13:51:46.927Z,1
2022-11-05T13:52:56.606Z,1
2022-11-05T13:54:06.273Z,0.9
2022-11-05T13:55:15.971Z,1.2
2022-11-05T13:56:25.703Z,0.9
2022-11-05T13:57:34.406Z,1.3
2022-11-05T13:58:44.123Z,1.1
2022-11-05T13:59:53.892Z,1.1
2022-11-05T14:01:02.686Z,1.1
2022-11-05T14:02:11.698Z,1.5
2022-11-05T14:03:21.340Z,1.3
2022-11-05T14:04:31.015Z,1.9
2022-11-05T14:05:40.747Z,2.1
2022-11-05T14:06:50.608Z,1.8
2022-11-05T14:08:00.483Z,2.6
2022-11-05T14:09:10.453Z,1.8
2022-11-05T14:10:18.070Z,1.4
2022-11-05T14:11:27.751Z,1.5
2022-11-05T14:12:37.433Z,1.9
2022-11-05T14:13:46.477Z,1.6
2022-11-05T14:14:58.994Z,1.9
2022-11-05T14:16:07.475Z,2.3
2022-11-05T14:17:17.285Z,2
2022-11-05T14:18:26.994Z,2.4
2022-11-05T14:19:34.712Z,2.5
2022-11-05T14:20:44.567Z,2.4
2022-11-05T14:21:54.313Z,2
2022-11-05T14:23:08.830Z,1.7
2022-11-05T14:24:14.936Z,2.2
2022-11-05T14:25:24.672Z,1.8
2022-11-05T14:26:33.380Z,1.5
2022-11-05T14:27:42.068Z,1.4
2022-11-05T14:28:51.742Z,1.3
2022-11-05T14:30:00.425Z,1.1
2022-11-05T14:31:10.091Z,1
2022-11-05T14:32:17.878Z,1
2022-11-05T14:33:27.744Z,0.8
2022-11-05T14:34:36.457Z,0.8
2022-11-05T14:35:46.045Z,0.6
2022-11-05T14:36:56.067Z,0.5
2022-11-05T14:38:06.399Z,0.6
2022-11-05T14:39:15.081Z,0.5
2022-11-05T14:40:25.183Z,0.3
2022-11-05T14:41:32.974Z,0.5
2022-11-05T14:42:42.599Z,0.5
2022-11-05T14:43:51.517Z,0.4
2022-11-05T14:45:00.400Z,0.5
2022-11-05T14:46:11.082Z,0.4
2022-11-05T14:47:19.781Z,0.5
2022-11-05T14:48:29.581Z,0.5
2022-11-05T14:49:39.292Z,0.4
2022-11-05T14:50:46.922Z,0.8
2022-11-05T14:51:56.597Z,0.6
2022-11-05T14:53:06.267Z,0.8
2022-11-05T14:54:15.105Z,0.8
2022-11-05T14:55:24.827Z,0.7
2022-11-05T14:56:33.525Z,0.8
2022-11-05T14:57:43.216Z,0.9
2022-11-05T14:58:52.889Z,0.6
2022-11-05T15:00:02.823Z,0.9
2022-11-05T15:01:11.443Z,0.8
2022-11-05T15:02:21.260Z,0.7
2022-11-05T15:03:29.015Z,1
2022-11-05T15:04:37.574Z,0.7
2022-11-05T15:05:46.338Z,0.7
2022-11-05T15:06:55.136Z,0.8
2022-11-05T15:08:05.019Z,0.8
2022-11-05T15:09:13.726Z,0.9
2022-11-05T15:10:22.419Z,1.1
2022-11-05T15:11:32.131Z,1
2022-11-05T15:12:40.833Z,0.7
2022-11-05T15:13:50.565Z,0.9
2022-11-05T15:15:00.267Z,0.7
2022-11-05T15:16:09.929Z,0.6
2022-11-05T15:17:19.601Z,0.5
2022-11-05T15:18:28.302Z,0.8
2022-11-05T15:19:35.981Z,0.5
2022-11-05T15:20:45.638Z,0.5
2022-11-05T15:21:54.799Z,0.5
2022-11-05T15:23:03.443Z,0.5
2022-11-05T15:24:13.148Z,0.4
2022-11-05T15:25:22.942Z,0.7
2022-11-05T15:26:32.606Z,0.7
2022-11-05T15:27:42.282Z,0.9
2022-11-05T15:28:51.057Z,1.2
2022-11-05T15:30:01.745Z,1.3
2022-11-05T15:31:10.432Z,1.7
2022-11-05T15:32:20.071Z,2.1
2022-11-05T15:33:28.728Z,1.8
2022-11-05T15:34:37.499Z,1.6
2022-11-05T15:35:47.343Z,1.1
2022-11-05T15:36:56.004Z,1
2022-11-05T15:38:04.840Z,0.8
2022-11-05T15:39:28.815Z,1.1
2022-11-05T15:40:24.325Z,0.9
2022-11-05T15:41:32.025Z,0.9
2022-11-05T15:42:41.694Z,1.1
2022-11-05T15:43:51.338Z,1.2
2022-11-05T15:45:01.068Z,1.2
2022-11-05T15:46:09.769Z,1.2
2022-11-05T15:47:18.610Z,1.2
2022-11-05T15:48:28.289Z,1
2022-11-05T15:49:35.948Z,1.1
2022-11-05T15:50:45.793Z,1
2022-11-05T15:51:55.474Z,0.8
2022-11-05T15:53:27.705Z,0.9
2022-11-05T15:54:29.495Z,0.8
2022-11-05T15:55:25.669Z,0.6
2022-11-05T15:56:34.342Z,0.7
2022-11-05T15:57:47.904Z,0.7
2022-11-05T15:58:54.717Z,0.8
2022-11-05T16:00:03.405Z,0.7
2022-11-05T16:01:13.103Z,0.5
2022-11-05T16:02:20.969Z,0.7
2022-11-05T16:03:30.526Z,0.7
2022-11-05T16:04:40.259Z,0.6
2022-11-05T16:05:48.922Z,0.8